Long Island Mac Arthur Airport
KISP : rendu visible

Aérodrome :











RETROUVEZ-NOUS SUR...

 
LOGIN :

S'inscrire | Disclaimer

   EN    FR    IT 

 









Légende :    VFR   VFR Marginal   IFR   IFR Intensif   IFR Très Intensif
Visi : 
Plafond : 
>= 8 km
>= 3000ft
5 à 8 km
1000 à 3000 ft
1500m à 5 km
500 à 1000 ft
800 à 1500m
200 à 500 ft
< 800m
< 200 ft
Symboles :   Orages  Brouillard  Fortes neiges  Fortes précipitations  Vent > 20 kt







- Altitude de l'aérodrome : 99 ft
- Code IATA : ISP


KISP - Long Island Mac Arthur

DERNIER METAR :
  • 240556Z AUTO 25006KT 10SM CLR 18/17 A2978 RMK AO2 SLP082 T01780172 10183 20156 56017

METARs EXPIRÉS :
  • 240456Z AUTO 26007KT 10SM FEW007 BKN095 18/17 A2978 RMK AO2 LTG DSNT N SLP085 T01780172 402000144
  • 240356Z 23011KT 9SM FEW006 BKN250 17/16 A2980 RMK AO2 SLP089 LAST T01670161

TAF KISP
Valide du 24 à 06h jusqu'au 25 à 06h UTC


240539Z 2406/2506 24009KT P6SM FEW008 SCT070 SCT200
FM240900 27011G18KT P6SM SCT040 SCT250
FM241200 30015G23KT P6SM SCT040
FM241400 32020G30KT P6SM SCT040
FM242100 34015G23KT P6SM FEW040
FM250000 36009KT P6SM FEW040 FEW250
FM250400 VRB03KT P6SM FEW035 FEW250
FIR KZBW / Amérique du Nord



MET'MAP, la Météo Aéronautique d'un coup d'oeil ! - Copyright ORBIFLY Décembre 2007 - Disclaimer

ORBIFLY MET'MAP TEAM :

Programmation & Développement : Alexandra Zaïnal
Conception & Développement : Baudouin d'Aumeries
Co-Programmation & Développement : Marc-Olivier Méhu
Soutien technique & logistique : Manuel Goepfert

Contact : metmap@orbifly.com




SOURCES & CREDITS :

   NOAA       Earth
Advisory